CheckWX is a tool to help pilots better visualize weather data.  It is not intended as a substitute for an official pre-flight weather briefing.

04:44:20 UTC

SBEG TAF
Eduardo Gomes International Airport
Manaus, Brazil
TAF SBEG 222200Z 2300/2324 10008KT 9999 SCT015 TN25/2307Z TX30/2319Z BECMG 2314/2316 02005KT 9999 SCT020 FEW025TCU PROB40 TEMPO 2320/2322 TS SCT020 FEW025CB RMK PEM

Mar-23@
00:00 UTC

Mar-23 @ 00:00 UTC

Mar-23@
14:00 UTC

Mar-23 @ 14:00 UTC

TAF SBEG 222200Z 2300/2324 10008KT 9999 SCT015 TN25/2307Z TX30/2319Z
Wind
  • 100° at 8 KTS
Cloud Levels
  • Scattered at 1,500' AGL

Mar-23@
14:00 UTC

Mar-23 @ 14:00 UTC

Mar-24@
00:00 UTC

Mar-24 @ 00:00 UTC

BECMG 2314/2316 02005KT 9999 SCT020 FEW025TCU

Becoming

Becoming Conditions expected by Sat, Mar 23, 2019 @ 16:00 UTC

Wind
  • 020° at 5 KTS
Cloud Levels
  • Scattered at 2,000' AGL
  • Few at 2,500' AGL

Mar-23@
20:00 UTC

Mar-23 @ 20:00 UTC

Mar-23@
22:00 UTC

Mar-23 @ 22:00 UTC

PROB40 TEMPO 2320/2322 TS SCT020 FEW025CB RMK PEM

Temporary - 40% Likelihood

Temporary - 40% Likelihood during this time.

Conditions
Thunderstorm
Cloud Levels
  • Scattered at 2,000' AGL
  • Few at 2,500' AGL